createdAt,value
2023-11-25T00:00:55.374Z,1.73
2023-11-25T00:03:23.112Z,1.80
2023-11-25T00:05:50.494Z,1.87
2023-11-25T00:08:17.982Z,2.33
2023-11-25T00:10:45.559Z,1.63
2023-11-25T00:13:12.735Z,2.03
2023-11-25T00:15:40.365Z,1.53
2023-11-25T00:18:08.906Z,1.70
2023-11-25T00:20:38.266Z,2.07
2023-11-25T00:23:05.806Z,2.53
2023-11-25T00:25:32.708Z,1.93
2023-11-25T00:28:00.733Z,2.17
2023-11-25T00:30:28.097Z,2.20
2023-11-25T00:32:56.070Z,1.50
2023-11-25T00:35:23.327Z,2.17
2023-11-25T00:37:50.203Z,1.77
2023-11-25T00:40:18.173Z,2.30
2023-11-25T00:42:47.644Z,1.53
2023-11-25T00:45:17.337Z,2.23
2023-11-25T00:47:44.329Z,2.27
2023-11-25T00:50:12.365Z,5.10
2023-11-25T00:52:40.062Z,3.10
2023-11-25T00:55:08.877Z,2.73
2023-11-25T00:57:36.328Z,2.97
2023-11-25T01:00:05.921Z,3.40
2023-11-25T01:02:33.286Z,2.13
2023-11-25T01:05:00.414Z,5.53
2023-11-25T01:07:27.515Z,2.30
2023-11-25T01:09:54.441Z,3.10
2023-11-25T01:12:21.911Z,3.00
2023-11-25T01:14:49.017Z,2.60
2023-11-25T01:17:15.934Z,2.67
2023-11-25T01:19:43.843Z,3.37
2023-11-25T01:22:10.789Z,1.73
2023-11-25T01:24:37.782Z,0.87
2023-11-25T01:27:04.790Z,2.07
2023-11-25T01:29:31.986Z,1.60
2023-11-25T01:31:58.893Z,2.10
2023-11-25T01:34:26.372Z,1.10
2023-11-25T01:36:53.558Z,2.50
2023-11-25T01:39:20.729Z,3.47
2023-11-25T01:41:47.508Z,3.80
2023-11-25T01:44:14.626Z,3.43
2023-11-25T01:46:45.071Z,5.37
2023-11-25T01:49:15.338Z,4.27
2023-11-25T01:51:44.975Z,3.77
2023-11-25T01:54:15.852Z,2.20
2023-11-25T01:56:45.823Z,3.83
2023-11-25T01:59:15.320Z,5.40
2023-11-25T02:01:45.100Z,4.27
2023-11-25T02:04:12.399Z,2.50
2023-11-25T02:06:39.236Z,3.83
2023-11-25T02:09:06.633Z,3.13
2023-11-25T02:11:53.210Z,3.07
2023-11-25T02:14:20.161Z,2.67
2023-11-25T02:16:47.214Z,2.70
2023-11-25T02:19:14.047Z,2.70
2023-11-25T02:21:41.321Z,3.27
2023-11-25T02:24:08.956Z,2.10
2023-11-25T02:26:35.781Z,4.00
2023-11-25T02:29:02.591Z,3.80
2023-11-25T02:31:29.433Z,2.90
2023-11-25T02:33:56.256Z,1.70
2023-11-25T02:36:24.669Z,2.60
2023-11-25T02:38:51.518Z,1.83
2023-11-25T02:41:19.388Z,2.43
2023-11-25T02:43:47.433Z,1.87
2023-11-25T02:46:14.830Z,5.87
2023-11-25T02:48:41.740Z,2.23
2023-11-25T02:51:09.760Z,3.53
2023-11-25T02:53:38.211Z,2.87
2023-11-25T02:56:05.406Z,1.33
2023-11-25T02:58:33.826Z,1.83
2023-11-25T03:01:08.243Z,5.80
2023-11-25T03:03:43.086Z,2.13
2023-11-25T03:06:10.775Z,3.07
2023-11-25T03:08:38.108Z,1.93
2023-11-25T03:11:13.061Z,3.57
2023-11-25T03:13:41.748Z,2.13
2023-11-25T03:16:11.785Z,3.33
2023-11-25T03:18:39.046Z,5.00
2023-11-25T03:21:07.293Z,1.50
2023-11-25T03:23:34.064Z,1.53
2023-11-25T03:26:00.869Z,1.87
2023-11-25T03:28:27.800Z,1.17
2023-11-25T03:30:55.345Z,3.57
2023-11-25T03:33:22.275Z,2.33
2023-11-25T03:35:50.454Z,2.13
2023-11-25T03:38:17.309Z,3.37
2023-11-25T03:40:44.121Z,1.97
2023-11-25T03:43:10.982Z,3.07
2023-11-25T03:45:38.146Z,2.90
2023-11-25T03:48:06.708Z,3.23
2023-11-25T03:50:33.917Z,3.23
2023-11-25T03:53:02.120Z,1.77
2023-11-25T03:55:29.357Z,1.63
2023-11-25T03:57:56.331Z,1.37
2023-11-25T04:00:23.949Z,2.67
2023-11-25T04:02:52.356Z,1.93
2023-11-25T04:05:19.618Z,2.00
2023-11-25T04:07:47.381Z,2.30
2023-11-25T04:10:15.234Z,3.10
2023-11-25T04:12:47.482Z,2.30
2023-11-25T04:15:20.915Z,2.43
2023-11-25T04:17:48.301Z,2.50
2023-11-25T04:20:19.038Z,1.93
2023-11-25T04:22:49.245Z,3.50
2023-11-25T04:25:16.973Z,2.93
2023-11-25T04:27:48.162Z,1.90
2023-11-25T04:30:16.977Z,3.80
2023-11-25T04:32:45.718Z,2.03
2023-11-25T04:35:14.823Z,2.10
2023-11-25T04:37:47.007Z,2.50
2023-11-25T04:40:14.874Z,5.57
2023-11-25T04:42:42.764Z,5.17
2023-11-25T04:45:16.449Z,4.00
2023-11-25T04:47:48.589Z,3.27
2023-11-25T04:50:16.751Z,1.77
2023-11-25T04:52:44.584Z,3.57
2023-11-25T04:55:15.704Z,2.53
2023-11-25T04:57:43.464Z,2.37
2023-11-25T05:00:12.093Z,4.50
2023-11-25T05:02:40.036Z,5.80
2023-11-25T05:05:07.772Z,4.40
2023-11-25T05:07:36.192Z,4.80
2023-11-25T05:10:10.264Z,5.30
2023-11-25T05:12:37.957Z,3.03
2023-11-25T05:15:05.190Z,3.67
2023-11-25T05:17:32.422Z,4.00
2023-11-25T05:19:59.223Z,3.60
2023-11-25T05:22:29.333Z,3.13
2023-11-25T05:24:56.376Z,2.73
2023-11-25T05:27:23.856Z,5.40
2023-11-25T05:29:50.907Z,4.17
2023-11-25T05:32:18.243Z,5.03
2023-11-25T05:34:46.021Z,4.90
2023-11-25T05:37:14.875Z,3.53
2023-11-25T05:39:42.207Z,3.00
2023-11-25T05:42:09.707Z,4.57
2023-11-25T05:44:36.587Z,4.77
2023-11-25T05:47:04.139Z,5.27
2023-11-25T05:49:31.067Z,3.27
2023-11-25T05:52:00.788Z,4.93
2023-11-25T05:54:28.638Z,5.23
2023-11-25T05:56:55.461Z,7.93
2023-11-25T05:59:22.855Z,10.27
2023-11-25T06:01:50.066Z,6.80
2023-11-25T06:04:19.622Z,7.07
2023-11-25T06:06:48.304Z,4.50
2023-11-25T06:09:16.042Z,6.70
2023-11-25T06:11:42.847Z,4.63
2023-11-25T06:14:13.412Z,4.17
2023-11-25T06:19:09.731Z,3.47
2023-11-25T06:21:36.590Z,4.40
2023-11-25T06:24:05.508Z,5.10
2023-11-25T06:26:32.287Z,5.37
2023-11-25T06:28:59.118Z,4.63
2023-11-25T06:31:25.957Z,5.50
2023-11-25T06:33:53.201Z,6.97
2023-11-25T06:36:20.051Z,6.37
2023-11-25T06:38:47.028Z,3.97
2023-11-25T06:41:13.873Z,4.27
2023-11-25T06:43:41.616Z,7.30
2023-11-25T06:46:09.401Z,8.67
2023-11-25T06:48:36.691Z,10.57
2023-11-25T06:51:04.544Z,9.57
2023-11-25T06:53:31.455Z,9.20
2023-11-25T06:55:59.679Z,8.57
2023-11-25T06:58:26.995Z,8.63
2023-11-25T07:00:54.975Z,5.83
2023-11-25T07:03:22.019Z,6.00
2023-11-25T07:05:48.979Z,8.03
2023-11-25T07:08:17.224Z,5.53
2023-11-25T07:10:54.778Z,8.00
2023-11-25T07:13:25.276Z,4.90
2023-11-25T07:15:52.115Z,5.00
2023-11-25T07:18:24.153Z,7.60
2023-11-25T07:20:52.403Z,5.60
2023-11-25T07:23:21.052Z,6.83
2023-11-25T07:25:48.438Z,7.40
2023-11-25T07:28:17.090Z,8.73
2023-11-25T07:30:45.405Z,7.83
2023-11-25T07:33:12.327Z,6.97
2023-11-25T07:35:39.384Z,7.57
2023-11-25T07:38:06.493Z,6.43
2023-11-25T07:40:34.001Z,6.77
2023-11-25T07:43:01.516Z,8.77
2023-11-25T07:45:28.335Z,8.73
2023-11-25T07:47:55.228Z,7.30
2023-11-25T07:50:23.111Z,8.93
2023-11-25T07:52:51.590Z,8.03
2023-11-25T07:55:19.117Z,7.47
2023-11-25T07:57:48.472Z,8.20
2023-11-25T08:00:20.532Z,8.20
2023-11-25T08:02:50.835Z,7.77
2023-11-25T08:05:26.477Z,6.67
2023-11-25T08:07:54.889Z,7.47
2023-11-25T08:10:24.476Z,6.60
2023-11-25T08:12:51.462Z,8.20
2023-11-25T08:15:18.752Z,9.90
2023-11-25T08:17:45.722Z,9.37
2023-11-25T08:20:13.036Z,11.30
2023-11-25T08:22:40.585Z,12.87
2023-11-25T08:25:11.335Z,14.50
2023-11-25T08:27:39.984Z,9.60
2023-11-25T08:30:09.952Z,9.90
2023-11-25T08:32:44.075Z,9.87
2023-11-25T08:35:12.693Z,13.93
2023-11-25T08:37:40.712Z,13.63
2023-11-25T08:40:18.952Z,7.57
2023-11-25T08:42:46.878Z,11.17
2023-11-25T08:45:14.337Z,11.13
2023-11-25T08:47:43.081Z,10.73
2023-11-25T08:50:16.212Z,15.83
2023-11-25T08:52:45.999Z,14.03
2023-11-25T08:55:18.380Z,15.07
2023-11-25T08:57:45.440Z,13.53
2023-11-25T09:00:16.311Z,16.10
2023-11-25T09:02:49.273Z,18.57
2023-11-25T09:05:16.528Z,12.63
2023-11-25T09:07:45.067Z,13.33
2023-11-25T09:10:12.741Z,11.90
2023-11-25T09:12:41.278Z,13.30
2023-11-25T09:15:09.868Z,11.47
2023-11-25T09:17:39.893Z,14.53
2023-11-25T09:20:11.227Z,12.60
2023-11-25T09:22:39.345Z,9.70
2023-11-25T09:25:06.928Z,9.07
2023-11-25T09:27:34.389Z,9.93
2023-11-25T09:30:01.296Z,15.70
2023-11-25T09:32:30.046Z,19.60
2023-11-25T09:34:57.112Z,15.63
2023-11-25T09:37:24.031Z,23.90
2023-11-25T09:39:50.961Z,23.00
2023-11-25T09:42:17.824Z,23.40
2023-11-25T09:44:44.936Z,25.10
2023-11-25T09:47:12.067Z,21.00
2023-11-25T09:49:39.109Z,21.33
2023-11-25T09:52:10.777Z,14.83
2023-11-25T09:54:37.913Z,15.10
2023-11-25T09:57:07.431Z,14.20
2023-11-25T09:59:35.251Z,13.00
2023-11-25T10:02:04.162Z,11.53
2023-11-25T10:04:34.984Z,12.00
2023-11-25T10:07:01.976Z,10.07
2023-11-25T10:09:28.840Z,11.57
2023-11-25T10:11:55.631Z,13.00
2023-11-25T10:14:28.899Z,19.33
2023-11-25T10:16:55.985Z,29.70
2023-11-25T10:19:24.162Z,46.87
2023-11-25T10:21:52.718Z,64.33
2023-11-25T10:24:22.405Z,70.50
2023-11-25T10:26:51.261Z,55.93
2023-11-25T10:29:21.213Z,60.87
2023-11-25T10:31:55.893Z,65.57
2023-11-25T10:34:25.751Z,46.47
2023-11-25T10:36:53.419Z,46.00
2023-11-25T10:39:21.479Z,43.30
2023-11-25T10:41:52.766Z,35.93
2023-11-25T10:44:21.460Z,24.00
2023-11-25T10:46:49.006Z,16.63
2023-11-25T10:49:17.412Z,15.43
2023-11-25T10:51:45.658Z,16.70
2023-11-25T10:54:13.643Z,12.30
2023-11-25T10:56:41.948Z,11.97
2023-11-25T10:59:14.330Z,9.07
2023-11-25T11:01:44.654Z,10.20
2023-11-25T11:04:31.639Z,8.57
2023-11-25T11:07:02.346Z,6.30
2023-11-25T11:09:34.110Z,7.03
2023-11-25T11:12:08.578Z,8.07
2023-11-25T11:14:45.953Z,8.30
2023-11-25T11:17:22.833Z,7.63
2023-11-25T11:19:54.776Z,10.07
2023-11-25T11:22:22.572Z,10.77
2023-11-25T11:25:08.862Z,16.93
2023-11-25T11:27:39.771Z,39.77
2023-11-25T11:30:21.544Z,25.30
2023-11-25T11:32:49.363Z,24.53
2023-11-25T11:35:21.190Z,32.43
2023-11-25T11:37:50.839Z,33.90
2023-11-25T11:40:21.985Z,40.23
2023-11-25T11:42:49.029Z,51.10
2023-11-25T11:45:28.455Z,62.87
2023-11-25T11:48:04.139Z,62.67
2023-11-25T11:50:32.724Z,59.13
2023-11-25T11:53:03.002Z,40.67
2023-11-25T11:55:41.590Z,36.43
2023-11-25T11:58:16.789Z,34.00
2023-11-25T12:00:56.842Z,21.63
2023-11-25T12:03:23.918Z,25.33
2023-11-25T12:05:52.551Z,20.17
2023-11-25T12:08:22.758Z,21.17
2023-11-25T12:10:50.722Z,18.17
2023-11-25T12:13:27.239Z,14.30
2023-11-25T12:15:55.743Z,12.63
2023-11-25T12:18:22.757Z,11.17
2023-11-25T12:20:49.679Z,11.60
2023-11-25T12:23:18.247Z,9.33
2023-11-25T12:25:45.463Z,9.33
2023-11-25T12:28:14.198Z,10.03
2023-11-25T12:30:44.148Z,6.80
2023-11-25T12:33:12.033Z,10.50
2023-11-25T12:35:44.688Z,11.27
2023-11-25T12:38:16.042Z,12.67
2023-11-25T12:40:45.963Z,11.63
2023-11-25T12:43:13.436Z,11.80
2023-11-25T12:45:45.168Z,12.33
2023-11-25T12:48:14.121Z,9.53
2023-11-25T12:51:08.997Z,7.00
2023-11-25T12:53:36.781Z,8.03
2023-11-25T12:56:04.315Z,8.63
2023-11-25T12:58:32.291Z,9.57
2023-11-25T13:00:59.886Z,7.40
2023-11-25T13:03:37.110Z,6.47
2023-11-25T13:06:13.209Z,5.27
2023-11-25T13:08:46.514Z,5.70
2023-11-25T13:11:18.705Z,5.27
2023-11-25T13:13:45.914Z,5.27
2023-11-25T13:16:14.111Z,5.83
2023-11-25T13:18:49.019Z,4.37
2023-11-25T13:21:16.306Z,3.80
2023-11-25T13:23:43.133Z,5.80
2023-11-25T13:26:10.594Z,5.73
2023-11-25T13:28:37.939Z,6.80
2023-11-25T13:31:06.349Z,4.57
2023-11-25T13:33:33.374Z,7.40
2023-11-25T13:36:00.503Z,7.60
2023-11-25T13:38:27.435Z,7.50
2023-11-25T13:40:55.141Z,7.73
2023-11-25T13:43:22.222Z,6.67
2023-11-25T13:45:49.854Z,6.53
2023-11-25T13:48:18.171Z,6.20
2023-11-25T13:50:45.247Z,5.93
2023-11-25T13:53:14.651Z,6.70
2023-11-25T13:55:46.693Z,6.20
2023-11-25T13:58:15.811Z,7.67
2023-11-25T14:00:43.436Z,6.80
2023-11-25T14:03:15.584Z,7.07
2023-11-25T14:05:44.182Z,12.40
2023-11-25T14:08:20.758Z,25.30
2023-11-25T14:10:47.644Z,39.03
2023-11-25T14:13:17.074Z,38.63
2023-11-25T14:15:44.059Z,51.70
2023-11-25T14:18:12.000Z,46.33
2023-11-25T14:20:39.152Z,54.80
2023-11-25T14:23:06.796Z,54.63
2023-11-25T14:25:33.945Z,59.20
2023-11-25T14:28:02.892Z,65.60
2023-11-25T14:30:32.030Z,75.80
2023-11-25T14:32:59.999Z,64.30
2023-11-25T14:35:27.228Z,93.03
2023-11-25T14:37:58.237Z,81.50
2023-11-25T14:40:25.554Z,53.03
2023-11-25T14:42:58.612Z,39.13
2023-11-25T14:45:26.631Z,28.20
2023-11-25T14:47:53.656Z,21.80
2023-11-25T14:50:20.626Z,20.77
2023-11-25T14:52:47.664Z,18.57
2023-11-25T14:55:14.572Z,17.13
2023-11-25T14:57:41.770Z,15.50
2023-11-25T15:00:11.627Z,17.07
2023-11-25T15:02:41.370Z,16.63
2023-11-25T15:05:10.739Z,14.07
2023-11-25T15:07:39.084Z,14.77
2023-11-25T15:10:06.559Z,12.30
2023-11-25T15:12:33.437Z,16.97
2023-11-25T15:15:00.355Z,15.13
2023-11-25T15:17:27.337Z,19.87
2023-11-25T15:19:54.417Z,18.23
2023-11-25T15:22:21.289Z,22.17
2023-11-25T15:24:48.721Z,19.50
2023-11-25T15:27:17.845Z,20.40
2023-11-25T15:30:02.078Z,16.50
2023-11-25T15:32:29.170Z,13.80
2023-11-25T15:34:57.515Z,12.80
2023-11-25T15:37:25.859Z,12.60
2023-11-25T15:39:53.500Z,10.83
2023-11-25T15:42:20.422Z,11.10
2023-11-25T15:44:47.787Z,9.00
2023-11-25T15:47:14.645Z,10.73
2023-11-25T15:49:41.925Z,12.27
2023-11-25T15:52:08.952Z,10.53
2023-11-25T15:54:35.725Z,8.83
2023-11-25T15:57:02.851Z,7.43
2023-11-25T15:59:30.833Z,9.00
2023-11-25T16:01:58.779Z,8.00
2023-11-25T16:04:25.931Z,8.40
2023-11-25T16:06:55.114Z,9.00
2023-11-25T16:09:22.291Z,7.37
2023-11-25T16:11:49.644Z,10.87
2023-11-25T16:14:16.634Z,11.13
2023-11-25T16:16:43.661Z,5.70
2023-11-25T16:19:11.285Z,10.50
2023-11-25T16:21:39.168Z,8.77
2023-11-25T16:24:07.813Z,10.07
2023-11-25T16:26:35.506Z,7.13
2023-11-25T16:29:03.116Z,9.43
2023-11-25T16:31:30.576Z,7.17
2023-11-25T16:33:57.439Z,9.73
2023-11-25T16:36:24.248Z,7.87
2023-11-25T16:38:51.013Z,9.23
2023-11-25T16:41:21.732Z,7.73
2023-11-25T16:43:48.488Z,9.77
2023-11-25T16:46:15.383Z,12.50
2023-11-25T16:48:48.752Z,25.87
2023-11-25T16:51:20.573Z,27.53
2023-11-25T16:53:48.026Z,40.67
2023-11-25T16:56:15.205Z,37.03
2023-11-25T16:58:42.175Z,46.80
2023-11-25T17:01:09.096Z,49.07
2023-11-25T17:03:36.345Z,40.80
2023-11-25T17:06:06.695Z,36.80
2023-11-25T17:08:34.038Z,27.87
2023-11-25T17:11:00.978Z,21.17
2023-11-25T17:13:27.963Z,20.27
2023-11-25T17:15:54.745Z,23.17
2023-11-25T17:18:21.511Z,19.17
2023-11-25T17:20:48.442Z,15.47
2023-11-25T17:23:15.347Z,17.00
2023-11-25T17:25:42.294Z,22.93
2023-11-25T17:28:09.394Z,21.23
2023-11-25T17:30:36.545Z,23.37
2023-11-25T17:33:04.417Z,25.00
2023-11-25T17:35:31.802Z,27.63
2023-11-25T17:37:58.709Z,28.50
2023-11-25T17:40:26.162Z,25.70
2023-11-25T17:42:53.352Z,16.60
2023-11-25T17:45:20.441Z,19.03
2023-11-25T17:47:47.293Z,20.27
2023-11-25T17:50:14.405Z,16.80
2023-11-25T17:52:41.303Z,16.90
2023-11-25T17:55:08.553Z,11.90
2023-11-25T17:57:35.423Z,13.47
2023-11-25T18:00:02.286Z,8.23
2023-11-25T18:02:31.661Z,8.07
2023-11-25T18:04:59.726Z,7.40
2023-11-25T18:07:27.651Z,7.73
2023-11-25T18:09:54.638Z,7.60
2023-11-25T18:12:21.622Z,18.27
2023-11-25T18:14:48.521Z,12.77
2023-11-25T18:17:16.145Z,15.13
2023-11-25T18:19:42.970Z,23.30
2023-11-25T18:22:10.935Z,27.53
2023-11-25T18:24:38.100Z,25.30
2023-11-25T18:27:05.581Z,22.50
2023-11-25T18:29:32.843Z,22.70
2023-11-25T18:32:00.367Z,23.20
2023-11-25T18:34:27.169Z,19.67
2023-11-25T18:36:54.073Z,15.03
2023-11-25T18:39:21.523Z,14.97
2023-11-25T18:41:48.512Z,13.93
2023-11-25T18:44:15.467Z,11.10
2023-11-25T18:46:42.613Z,13.80
2023-11-25T18:49:10.733Z,11.63
2023-11-25T18:51:41.792Z,12.10
2023-11-25T18:54:08.972Z,13.03
2023-11-25T18:56:37.262Z,11.30
2023-11-25T18:59:04.580Z,11.77
2023-11-25T19:01:34.622Z,9.47
2023-11-25T19:04:02.170Z,12.10
2023-11-25T19:06:29.158Z,9.53
2023-11-25T19:08:56.136Z,9.57
2023-11-25T19:11:23.029Z,9.37
2023-11-25T19:13:50.057Z,7.97
2023-11-25T19:16:18.186Z,7.43
2023-11-25T19:18:45.700Z,6.43
2023-11-25T19:21:14.234Z,6.83
2023-11-25T19:23:41.480Z,5.37
2023-11-25T19:26:10.377Z,6.03
2023-11-25T19:28:37.511Z,6.53
2023-11-25T19:31:04.541Z,9.97
2023-11-25T19:33:31.451Z,6.67
2023-11-25T19:35:58.323Z,13.20
2023-11-25T19:38:26.479Z,8.30
2023-11-25T19:40:53.336Z,9.10
2023-11-25T19:43:20.115Z,8.93
2023-11-25T19:45:47.051Z,8.60
2023-11-25T19:48:14.043Z,9.20
2023-11-25T19:50:41.754Z,12.87
2023-11-25T19:53:09.576Z,11.83
2023-11-25T19:55:36.813Z,10.00
2023-11-25T19:58:04.093Z,9.03
2023-11-25T20:00:31.101Z,6.87
2023-11-25T20:02:58.263Z,5.60
2023-11-25T20:05:25.352Z,8.57
2023-11-25T20:07:52.249Z,8.00
2023-11-25T20:10:20.543Z,6.37
2023-11-25T20:12:47.534Z,6.57
2023-11-25T20:15:14.493Z,7.63
2023-11-25T20:17:41.365Z,7.23
2023-11-25T20:20:09.464Z,6.43
2023-11-25T20:22:37.000Z,5.23
2023-11-25T20:25:04.428Z,6.30
2023-11-25T20:27:31.372Z,6.33
2023-11-25T20:29:59.116Z,5.10
2023-11-25T20:32:26.042Z,5.53
2023-11-25T20:34:52.918Z,5.20
2023-11-25T20:37:19.760Z,6.10
2023-11-25T20:39:46.597Z,5.10
2023-11-25T20:42:13.503Z,5.73
2023-11-25T20:44:40.340Z,5.07
2023-11-25T20:47:07.365Z,4.43
2023-11-25T20:49:34.307Z,5.70
2023-11-25T20:52:02.271Z,3.90
2023-11-25T20:54:29.375Z,3.77
2023-11-25T20:56:56.751Z,3.50
2023-11-25T20:59:23.717Z,3.60
2023-11-25T21:01:50.815Z,3.30
2023-11-25T21:04:17.887Z,5.60
2023-11-25T21:06:44.794Z,5.87
2023-11-25T21:09:13.543Z,4.60
2023-11-25T21:11:40.906Z,4.33
2023-11-25T21:14:08.708Z,4.87
2023-11-25T21:16:35.644Z,4.23
2023-11-25T21:19:02.800Z,4.47
2023-11-25T21:21:29.870Z,4.33
2023-11-25T21:23:56.650Z,5.47
2023-11-25T21:26:23.446Z,6.07
2023-11-25T21:28:51.478Z,6.20
2023-11-25T21:31:18.374Z,7.10
2023-11-25T21:33:45.333Z,6.17
2023-11-25T21:36:12.153Z,6.23
2023-11-25T21:38:39.117Z,7.10
2023-11-25T21:41:07.484Z,6.63
2023-11-25T21:43:34.526Z,7.07
2023-11-25T21:46:03.945Z,8.33
2023-11-25T21:48:32.477Z,7.20
2023-11-25T21:50:59.556Z,9.77
2023-11-25T21:53:27.738Z,7.73
2023-11-25T21:55:56.258Z,10.40
2023-11-25T21:58:23.263Z,6.37
2023-11-25T22:00:50.071Z,5.90
2023-11-25T22:03:17.239Z,5.60
2023-11-25T22:05:44.157Z,20.70
2023-11-25T22:08:11.170Z,10.70
2023-11-25T22:10:40.759Z,11.03
2023-11-25T22:13:07.774Z,14.60
2023-11-25T22:15:34.951Z,15.23
2023-11-25T22:18:04.369Z,14.63
2023-11-25T22:20:31.181Z,19.67
2023-11-25T22:22:58.119Z,15.33
2023-11-25T22:25:28.251Z,13.43
2023-11-25T22:27:56.118Z,10.03
2023-11-25T22:30:22.951Z,10.00
2023-11-25T22:32:49.785Z,13.20
2023-11-25T22:35:17.674Z,19.63
2023-11-25T22:37:45.304Z,19.23
2023-11-25T22:40:12.866Z,9.30
2023-11-25T22:42:39.714Z,8.13
2023-11-25T22:45:07.133Z,8.33
2023-11-25T22:50:02.149Z,9.43
2023-11-25T22:52:30.154Z,6.93
2023-11-25T22:54:57.200Z,20.67
2023-11-25T22:57:24.117Z,23.67
2023-11-25T22:59:53.710Z,19.87
2023-11-25T23:02:21.519Z,10.27
2023-11-25T23:04:48.604Z,14.03
2023-11-25T23:07:15.775Z,18.37
2023-11-25T23:09:42.721Z,18.33
2023-11-25T23:12:09.870Z,16.97
2023-11-25T23:14:38.611Z,21.03
2023-11-25T23:17:06.827Z,12.70
2023-11-25T23:19:33.758Z,11.73
2023-11-25T23:22:00.775Z,10.30
2023-11-25T23:24:27.578Z,9.00
2023-11-25T23:26:54.419Z,9.13
2023-11-25T23:29:21.326Z,10.80
2023-11-25T23:31:49.135Z,9.30
2023-11-25T23:34:16.203Z,14.00
2023-11-25T23:36:42.989Z,11.27
2023-11-25T23:39:09.800Z,10.47
2023-11-25T23:41:36.562Z,9.50
2023-11-25T23:44:03.453Z,6.40
2023-11-25T23:46:31.947Z,5.73
2023-11-25T23:48:59.141Z,4.83
2023-11-25T23:51:25.917Z,3.67
2023-11-25T23:53:52.714Z,5.03
2023-11-25T23:56:19.656Z,4.87
2023-11-25T23:58:46.759Z,2.97
